sensor_id;sensor_type;location;lat;lon;timestamp;P1;durP1;ratioP1;P2;durP2;ratioP2
21122;SDS011;10719;48.130;11.630;2023-07-02T00:01:44;5.70;;;2.25;;
21122;SDS011;10719;48.130;11.630;2023-07-02T00:04:10;5.50;;;2.13;;
21122;SDS011;10719;48.130;11.630;2023-07-02T00:06:40;5.28;;;1.95;;
21122;SDS011;10719;48.130;11.630;2023-07-02T00:09:10;5.70;;;1.88;;
21122;SDS011;10719;48.130;11.630;2023-07-02T00:11:39;3.35;;;1.60;;
21122;SDS011;10719;48.130;11.630;2023-07-02T00:14:07;4.47;;;2.05;;
21122;SDS011;10719;48.130;11.630;2023-07-02T00:16:34;5.35;;;2.00;;
21122;SDS011;10719;48.130;11.630;2023-07-02T00:19:04;5.47;;;2.28;;
21122;SDS011;10719;48.130;11.630;2023-07-02T00:21:30;7.28;;;1.80;;
21122;SDS011;10719;48.130;11.630;2023-07-02T00:23:58;4.35;;;1.73;;
21122;SDS011;10719;48.130;11.630;2023-07-02T00:26:25;4.55;;;1.88;;
21122;SDS011;10719;48.130;11.630;2023-07-02T00:28:53;5.03;;;1.92;;
21122;SDS011;10719;48.130;11.630;2023-07-02T00:31:19;4.30;;;1.52;;
21122;SDS011;10719;48.130;11.630;2023-07-02T00:33:45;6.82;;;2.00;;
21122;SDS011;10719;48.130;11.630;2023-07-02T00:36:11;4.82;;;1.70;;
21122;SDS011;10719;48.130;11.630;2023-07-02T00:38:43;3.40;;;1.73;;
21122;SDS011;10719;48.130;11.630;2023-07-02T00:41:10;2.53;;;1.40;;
21122;SDS011;10719;48.130;11.630;2023-07-02T00:43:36;4.57;;;1.88;;
21122;SDS011;10719;48.130;11.630;2023-07-02T00:46:04;5.45;;;2.08;;
21122;SDS011;10719;48.130;11.630;2023-07-02T00:48:30;5.85;;;1.95;;
21122;SDS011;10719;48.130;11.630;2023-07-02T00:50:56;5.63;;;1.80;;
21122;SDS011;10719;48.130;11.630;2023-07-02T00:53:22;5.05;;;1.83;;
21122;SDS011;10719;48.130;11.630;2023-07-02T00:55:48;2.92;;;1.45;;
21122;SDS011;10719;48.130;11.630;2023-07-02T00:58:13;4.75;;;1.52;;
21122;SDS011;10719;48.130;11.630;2023-07-02T01:00:40;5.57;;;1.70;;
21122;SDS011;10719;48.130;11.630;2023-07-02T01:03:07;3.85;;;1.90;;
21122;SDS011;10719;48.130;11.630;2023-07-02T01:05:32;6.03;;;1.98;;
21122;SDS011;10719;48.130;11.630;2023-07-02T01:08:04;2.95;;;1.20;;
21122;SDS011;10719;48.130;11.630;2023-07-02T01:10:33;3.80;;;1.73;;
21122;SDS011;10719;48.130;11.630;2023-07-02T01:13:00;2.70;;;1.50;;
21122;SDS011;10719;48.130;11.630;2023-07-02T01:15:31;2.00;;;1.17;;
21122;SDS011;10719;48.130;11.630;2023-07-02T01:17:57;3.33;;;1.38;;
21122;SDS011;10719;48.130;11.630;2023-07-02T01:20:23;2.17;;;1.30;;
21122;SDS011;10719;48.130;11.630;2023-07-02T01:22:50;7.72;;;1.35;;
21122;SDS011;10719;48.130;11.630;2023-07-02T01:25:18;2.85;;;1.35;;
21122;SDS011;10719;48.130;11.630;2023-07-02T01:27:50;2.28;;;1.42;;
21122;SDS011;10719;48.130;11.630;2023-07-02T01:30:18;2.60;;;1.40;;
21122;SDS011;10719;48.130;11.630;2023-07-02T01:32:44;3.50;;;1.25;;
21122;SDS011;10719;48.130;11.630;2023-07-02T01:35:09;7.53;;;2.00;;
21122;SDS011;10719;48.130;11.630;2023-07-02T01:37:35;3.47;;;1.25;;
21122;SDS011;10719;48.130;11.630;2023-07-02T01:40:05;2.50;;;1.35;;
21122;SDS011;10719;48.130;11.630;2023-07-02T01:42:31;3.38;;;1.50;;
21122;SDS011;10719;48.130;11.630;2023-07-02T01:44:57;1.73;;;1.13;;
21122;SDS011;10719;48.130;11.630;2023-07-02T01:47:23;5.82;;;1.55;;
21122;SDS011;10719;48.130;11.630;2023-07-02T01:49:49;3.15;;;1.08;;
21122;SDS011;10719;48.130;11.630;2023-07-02T01:52:15;3.03;;;1.02;;
21122;SDS011;10719;48.130;11.630;2023-07-02T01:54:41;2.83;;;1.33;;
21122;SDS011;10719;48.130;11.630;2023-07-02T01:57:08;5.68;;;1.55;;
21122;SDS011;10719;48.130;11.630;2023-07-02T01:59:34;2.08;;;1.05;;
21122;SDS011;10719;48.130;11.630;2023-07-02T02:02:00;4.10;;;1.15;;
21122;SDS011;10719;48.130;11.630;2023-07-02T02:04:25;4.38;;;1.05;;
21122;SDS011;10719;48.130;11.630;2023-07-02T02:06:51;2.53;;;1.20;;
21122;SDS011;10719;48.130;11.630;2023-07-02T02:09:17;1.67;;;1.05;;
21122;SDS011;10719;48.130;11.630;2023-07-02T02:11:44;3.60;;;1.33;;
21122;SDS011;10719;48.130;11.630;2023-07-02T02:14:12;3.33;;;1.27;;
21122;SDS011;10719;48.130;11.630;2023-07-02T02:16:38;1.33;;;0.85;;
21122;SDS011;10719;48.130;11.630;2023-07-02T02:19:04;1.58;;;0.90;;
21122;SDS011;10719;48.130;11.630;2023-07-02T02:21:30;3.50;;;1.30;;
21122;SDS011;10719;48.130;11.630;2023-07-02T02:23:56;2.67;;;1.08;;
21122;SDS011;10719;48.130;11.630;2023-07-02T02:26:22;2.53;;;1.08;;
21122;SDS011;10719;48.130;11.630;2023-07-02T02:28:50;5.07;;;1.45;;
21122;SDS011;10719;48.130;11.630;2023-07-02T02:31:16;4.47;;;1.30;;
21122;SDS011;10719;48.130;11.630;2023-07-02T02:33:42;3.25;;;1.20;;
21122;SDS011;10719;48.130;11.630;2023-07-02T02:36:08;3.10;;;1.13;;
21122;SDS011;10719;48.130;11.630;2023-07-02T02:38:33;2.15;;;1.08;;
21122;SDS011;10719;48.130;11.630;2023-07-02T02:40:59;2.80;;;1.45;;
21122;SDS011;10719;48.130;11.630;2023-07-02T02:43:25;3.45;;;1.25;;
21122;SDS011;10719;48.130;11.630;2023-07-02T02:45:51;3.17;;;1.42;;
21122;SDS011;10719;48.130;11.630;2023-07-02T02:48:16;3.00;;;1.40;;
21122;SDS011;10719;48.130;11.630;2023-07-02T02:50:42;2.30;;;1.17;;
21122;SDS011;10719;48.130;11.630;2023-07-02T02:53:08;1.50;;;1.10;;
21122;SDS011;10719;48.130;11.630;2023-07-02T02:55:35;4.15;;;1.50;;
21122;SDS011;10719;48.130;11.630;2023-07-02T02:58:03;4.43;;;1.40;;
21122;SDS011;10719;48.130;11.630;2023-07-02T03:00:29;5.15;;;1.42;;
21122;SDS011;10719;48.130;11.630;2023-07-02T03:02:55;3.45;;;1.20;;
21122;SDS011;10719;48.130;11.630;2023-07-02T03:05:21;1.23;;;0.75;;
21122;SDS011;10719;48.130;11.630;2023-07-02T03:07:47;2.47;;;0.90;;
21122;SDS011;10719;48.130;11.630;2023-07-02T03:10:13;3.30;;;1.38;;
21122;SDS011;10719;48.130;11.630;2023-07-02T03:12:38;2.72;;;1.17;;
21122;SDS011;10719;48.130;11.630;2023-07-02T03:15:04;3.17;;;1.52;;
21122;SDS011;10719;48.130;11.630;2023-07-02T03:17:30;4.03;;;1.15;;
21122;SDS011;10719;48.130;11.630;2023-07-02T03:19:56;2.30;;;1.23;;
21122;SDS011;10719;48.130;11.630;2023-07-02T03:22:22;2.08;;;1.00;;
21122;SDS011;10719;48.130;11.630;2023-07-02T03:24:47;1.92;;;1.08;;
21122;SDS011;10719;48.130;11.630;2023-07-02T03:27:13;4.90;;;1.77;;
21122;SDS011;10719;48.130;11.630;2023-07-02T03:29:38;3.95;;;1.45;;
21122;SDS011;10719;48.130;11.630;2023-07-02T03:32:04;2.85;;;1.35;;
21122;SDS011;10719;48.130;11.630;2023-07-02T03:34:30;5.60;;;1.85;;
21122;SDS011;10719;48.130;11.630;2023-07-02T03:36:55;6.18;;;1.98;;
21122;SDS011;10719;48.130;11.630;2023-07-02T03:39:21;9.45;;;2.10;;
21122;SDS011;10719;48.130;11.630;2023-07-02T03:41:47;5.85;;;1.75;;
21122;SDS011;10719;48.130;11.630;2023-07-02T03:44:13;5.50;;;1.80;;
21122;SDS011;10719;48.130;11.630;2023-07-02T03:46:38;4.13;;;1.80;;
21122;SDS011;10719;48.130;11.630;2023-07-02T03:49:04;3.70;;;1.85;;
21122;SDS011;10719;48.130;11.630;2023-07-02T03:51:30;5.85;;;1.90;;
21122;SDS011;10719;48.130;11.630;2023-07-02T03:53:57;10.80;;;2.15;;
21122;SDS011;10719;48.130;11.630;2023-07-02T03:56:23;6.95;;;1.85;;
21122;SDS011;10719;48.130;11.630;2023-07-02T03:58:49;5.88;;;2.13;;
21122;SDS011;10719;48.130;11.630;2023-07-02T04:01:14;4.75;;;2.00;;
21122;SDS011;10719;48.130;11.630;2023-07-02T04:03:41;5.28;;;2.10;;
21122;SDS011;10719;48.130;11.630;2023-07-02T04:06:12;5.22;;;2.17;;
21122;SDS011;10719;48.130;11.630;2023-07-02T04:08:38;5.57;;;1.92;;
21122;SDS011;10719;48.130;11.630;2023-07-02T04:11:03;3.78;;;1.95;;
21122;SDS011;10719;48.130;11.630;2023-07-02T04:13:29;5.00;;;2.22;;
21122;SDS011;10719;48.130;11.630;2023-07-02T04:15:55;6.95;;;2.05;;
21122;SDS011;10719;48.130;11.630;2023-07-02T04:18:20;6.35;;;2.38;;
21122;SDS011;10719;48.130;11.630;2023-07-02T04:20:46;5.30;;;2.00;;
21122;SDS011;10719;48.130;11.630;2023-07-02T04:23:11;6.43;;;2.28;;
21122;SDS011;10719;48.130;11.630;2023-07-02T04:25:37;4.85;;;2.05;;
21122;SDS011;10719;48.130;11.630;2023-07-02T04:28:03;5.32;;;1.95;;
21122;SDS011;10719;48.130;11.630;2023-07-02T04:30:28;4.35;;;2.17;;
21122;SDS011;10719;48.130;11.630;2023-07-02T04:32:54;4.20;;;1.92;;
21122;SDS011;10719;48.130;11.630;2023-07-02T04:35:19;6.50;;;2.65;;
21122;SDS011;10719;48.130;11.630;2023-07-02T04:37:45;3.03;;;1.80;;
21122;SDS011;10719;48.130;11.630;2023-07-02T04:40:11;5.57;;;2.35;;
21122;SDS011;10719;48.130;11.630;2023-07-02T04:42:37;6.53;;;2.20;;
21122;SDS011;10719;48.130;11.630;2023-07-02T04:45:04;4.43;;;1.98;;
21122;SDS011;10719;48.130;11.630;2023-07-02T04:47:30;6.30;;;2.20;;
21122;SDS011;10719;48.130;11.630;2023-07-02T04:49:56;6.25;;;2.28;;
21122;SDS011;10719;48.130;11.630;2023-07-02T04:52:22;6.35;;;2.83;;
21122;SDS011;10719;48.130;11.630;2023-07-02T04:54:48;4.60;;;2.47;;
21122;SDS011;10719;48.130;11.630;2023-07-02T04:57:13;4.35;;;2.05;;
21122;SDS011;10719;48.130;11.630;2023-07-02T04:59:40;5.70;;;2.25;;
21122;SDS011;10719;48.130;11.630;2023-07-02T05:02:07;4.57;;;2.00;;
21122;SDS011;10719;48.130;11.630;2023-07-02T05:04:32;6.15;;;2.20;;
21122;SDS011;10719;48.130;11.630;2023-07-02T05:06:59;7.57;;;2.67;;
21122;SDS011;10719;48.130;11.630;2023-07-02T05:09:25;4.63;;;2.13;;
21122;SDS011;10719;48.130;11.630;2023-07-02T05:11:50;4.82;;;2.00;;
21122;SDS011;10719;48.130;11.630;2023-07-02T05:14:16;5.57;;;2.20;;
21122;SDS011;10719;48.130;11.630;2023-07-02T05:16:42;4.25;;;2.08;;
21122;SDS011;10719;48.130;11.630;2023-07-02T05:19:07;6.57;;;2.20;;
21122;SDS011;10719;48.130;11.630;2023-07-02T05:21:33;5.70;;;2.03;;
21122;SDS011;10719;48.130;11.630;2023-07-02T05:23:58;6.53;;;2.50;;
21122;SDS011;10719;48.130;11.630;2023-07-02T05:26:24;4.65;;;1.80;;
21122;SDS011;10719;48.130;11.630;2023-07-02T05:28:51;4.70;;;2.10;;
21122;SDS011;10719;48.130;11.630;2023-07-02T05:31:16;4.43;;;2.08;;
21122;SDS011;10719;48.130;11.630;2023-07-02T05:33:42;6.88;;;2.20;;
21122;SDS011;10719;48.130;11.630;2023-07-02T05:36:07;5.55;;;2.25;;
21122;SDS011;10719;48.130;11.630;2023-07-02T05:38:33;5.50;;;2.17;;
21122;SDS011;10719;48.130;11.630;2023-07-02T05:40:58;5.80;;;2.22;;
21122;SDS011;10719;48.130;11.630;2023-07-02T05:43:24;5.57;;;2.55;;
21122;SDS011;10719;48.130;11.630;2023-07-02T05:45:50;6.18;;;2.45;;
21122;SDS011;10719;48.130;11.630;2023-07-02T05:48:17;4.47;;;2.13;;
21122;SDS011;10719;48.130;11.630;2023-07-02T05:50:43;5.68;;;2.40;;
21122;SDS011;10719;48.130;11.630;2023-07-02T05:53:09;4.60;;;1.85;;
21122;SDS011;10719;48.130;11.630;2023-07-02T05:55:35;7.00;;;2.63;;
21122;SDS011;10719;48.130;11.630;2023-07-02T05:58:01;3.45;;;1.80;;
21122;SDS011;10719;48.130;11.630;2023-07-02T06:00:28;6.20;;;2.28;;
21122;SDS011;10719;48.130;11.630;2023-07-02T06:02:54;6.60;;;2.55;;
21122;SDS011;10719;48.130;11.630;2023-07-02T06:05:20;4.50;;;1.98;;
21122;SDS011;10719;48.130;11.630;2023-07-02T06:07:45;5.07;;;1.65;;
21122;SDS011;10719;48.130;11.630;2023-07-02T06:10:11;5.70;;;2.08;;
21122;SDS011;10719;48.130;11.630;2023-07-02T06:12:37;5.30;;;2.30;;
21122;SDS011;10719;48.130;11.630;2023-07-02T06:15:03;4.07;;;1.75;;
21122;SDS011;10719;48.130;11.630;2023-07-02T06:17:29;5.70;;;2.55;;
21122;SDS011;10719;48.130;11.630;2023-07-02T06:19:56;5.38;;;2.10;;
21122;SDS011;10719;48.130;11.630;2023-07-02T06:22:22;4.32;;;2.00;;
21122;SDS011;10719;48.130;11.630;2023-07-02T06:24:48;5.95;;;2.20;;
21122;SDS011;10719;48.130;11.630;2023-07-02T06:27:14;3.85;;;2.05;;
21122;SDS011;10719;48.130;11.630;2023-07-02T06:29:39;4.22;;;2.00;;
21122;SDS011;10719;48.130;11.630;2023-07-02T06:32:05;5.68;;;2.08;;
21122;SDS011;10719;48.130;11.630;2023-07-02T06:34:31;8.82;;;2.90;;
21122;SDS011;10719;48.130;11.630;2023-07-02T06:36:56;5.63;;;2.33;;
21122;SDS011;10719;48.130;11.630;2023-07-02T06:39:22;5.72;;;2.03;;
21122;SDS011;10719;48.130;11.630;2023-07-02T06:41:48;6.82;;;2.17;;
21122;SDS011;10719;48.130;11.630;2023-07-02T06:44:13;6.03;;;2.25;;
21122;SDS011;10719;48.130;11.630;2023-07-02T06:46:39;5.75;;;2.38;;
21122;SDS011;10719;48.130;11.630;2023-07-02T06:49:05;5.75;;;2.47;;
21122;SDS011;10719;48.130;11.630;2023-07-02T06:51:30;6.65;;;2.30;;
21122;SDS011;10719;48.130;11.630;2023-07-02T06:53:56;5.05;;;2.13;;
21122;SDS011;10719;48.130;11.630;2023-07-02T06:56:21;7.20;;;2.53;;
21122;SDS011;10719;48.130;11.630;2023-07-02T06:58:47;6.47;;;2.42;;
21122;SDS011;10719;48.130;11.630;2023-07-02T07:01:13;6.07;;;2.30;;
21122;SDS011;10719;48.130;11.630;2023-07-02T07:03:38;6.88;;;2.50;;
21122;SDS011;10719;48.130;11.630;2023-07-02T07:06:04;4.22;;;2.13;;
21122;SDS011;10719;48.130;11.630;2023-07-02T07:08:29;6.78;;;2.10;;
21122;SDS011;10719;48.130;11.630;2023-07-02T07:10:55;8.48;;;2.72;;
21122;SDS011;10719;48.130;11.630;2023-07-02T07:13:20;5.78;;;2.30;;
21122;SDS011;10719;48.130;11.630;2023-07-02T07:15:46;5.47;;;2.53;;
21122;SDS011;10719;48.130;11.630;2023-07-02T07:18:12;4.75;;;2.15;;
21122;SDS011;10719;48.130;11.630;2023-07-02T07:20:39;6.15;;;2.85;;
21122;SDS011;10719;48.130;11.630;2023-07-02T07:23:05;6.95;;;3.05;;
21122;SDS011;10719;48.130;11.630;2023-07-02T07:25:31;7.40;;;2.83;;
21122;SDS011;10719;48.130;11.630;2023-07-02T07:27:58;9.00;;;3.13;;
21122;SDS011;10719;48.130;11.630;2023-07-02T07:30:24;6.20;;;2.40;;
21122;SDS011;10719;48.130;11.630;2023-07-02T07:32:50;6.25;;;2.40;;
21122;SDS011;10719;48.130;11.630;2023-07-02T07:35:19;4.47;;;2.38;;
21122;SDS011;10719;48.130;11.630;2023-07-02T07:37:46;6.72;;;2.70;;
21122;SDS011;10719;48.130;11.630;2023-07-02T07:40:12;4.90;;;2.40;;
21122;SDS011;10719;48.130;11.630;2023-07-02T07:42:38;6.57;;;2.83;;
21122;SDS011;10719;48.130;11.630;2023-07-02T07:45:04;6.13;;;2.35;;
21122;SDS011;10719;48.130;11.630;2023-07-02T07:47:30;8.23;;;2.70;;
21122;SDS011;10719;48.130;11.630;2023-07-02T07:49:56;7.78;;;3.42;;
21122;SDS011;10719;48.130;11.630;2023-07-02T07:52:21;8.97;;;3.40;;
21122;SDS011;10719;48.130;11.630;2023-07-02T07:54:47;5.78;;;3.00;;
21122;SDS011;10719;48.130;11.630;2023-07-02T07:57:13;7.20;;;2.90;;
21122;SDS011;10719;48.130;11.630;2023-07-02T07:59:39;8.52;;;3.53;;
21122;SDS011;10719;48.130;11.630;2023-07-02T08:02:05;8.98;;;3.10;;
21122;SDS011;10719;48.130;11.630;2023-07-02T08:04:31;8.63;;;3.22;;
21122;SDS011;10719;48.130;11.630;2023-07-02T08:06:56;7.15;;;2.83;;
21122;SDS011;10719;48.130;11.630;2023-07-02T08:09:22;8.35;;;2.97;;
21122;SDS011;10719;48.130;11.630;2023-07-02T08:11:49;8.30;;;2.92;;
21122;SDS011;10719;48.130;11.630;2023-07-02T08:14:14;8.32;;;2.78;;
21122;SDS011;10719;48.130;11.630;2023-07-02T08:16:42;6.25;;;2.40;;
21122;SDS011;10719;48.130;11.630;2023-07-02T08:19:09;7.07;;;2.70;;
21122;SDS011;10719;48.130;11.630;2023-07-02T08:21:35;8.05;;;2.92;;
21122;SDS011;10719;48.130;11.630;2023-07-02T08:24:00;5.32;;;2.47;;
21122;SDS011;10719;48.130;11.630;2023-07-02T08:26:26;7.10;;;2.67;;
21122;SDS011;10719;48.130;11.630;2023-07-02T08:28:51;7.63;;;2.83;;
21122;SDS011;10719;48.130;11.630;2023-07-02T08:31:17;7.00;;;2.42;;
21122;SDS011;10719;48.130;11.630;2023-07-02T08:33:43;5.38;;;2.42;;
21122;SDS011;10719;48.130;11.630;2023-07-02T08:36:08;5.10;;;2.13;;
21122;SDS011;10719;48.130;11.630;2023-07-02T08:38:34;5.60;;;2.65;;
21122;SDS011;10719;48.130;11.630;2023-07-02T08:41:00;4.60;;;2.40;;
21122;SDS011;10719;48.130;11.630;2023-07-02T08:43:25;4.32;;;2.28;;
21122;SDS011;10719;48.130;11.630;2023-07-02T08:45:52;5.07;;;2.20;;
21122;SDS011;10719;48.130;11.630;2023-07-02T08:48:18;5.15;;;2.15;;
21122;SDS011;10719;48.130;11.630;2023-07-02T08:50:47;4.38;;;1.63;;
21122;SDS011;10719;48.130;11.630;2023-07-02T08:53:14;6.00;;;1.77;;
21122;SDS011;10719;48.130;11.630;2023-07-02T08:55:39;4.13;;;1.90;;
21122;SDS011;10719;48.130;11.630;2023-07-02T08:58:05;6.30;;;2.10;;
21122;SDS011;10719;48.130;11.630;2023-07-02T09:00:31;3.35;;;1.70;;
21122;SDS011;10719;48.130;11.630;2023-07-02T09:03:22;5.18;;;2.10;;
21122;SDS011;10719;48.130;11.630;2023-07-02T09:05:50;3.78;;;1.80;;
21122;SDS011;10719;48.130;11.630;2023-07-02T09:08:26;3.92;;;2.00;;
21122;SDS011;10719;48.130;11.630;2023-07-02T09:10:53;5.40;;;2.15;;
21122;SDS011;10719;48.130;11.630;2023-07-02T09:13:19;5.18;;;2.15;;
21122;SDS011;10719;48.130;11.630;2023-07-02T09:15:45;6.18;;;2.05;;
21122;SDS011;10719;48.130;11.630;2023-07-02T09:18:20;5.82;;;2.30;;
21122;SDS011;10719;48.130;11.630;2023-07-02T09:20:50;4.10;;;2.05;;
21122;SDS011;10719;48.130;11.630;2023-07-02T09:23:16;8.32;;;2.38;;
21122;SDS011;10719;48.130;11.630;2023-07-02T09:25:42;4.95;;;2.00;;
21122;SDS011;10719;48.130;11.630;2023-07-02T09:28:14;3.08;;;1.67;;
21122;SDS011;10719;48.130;11.630;2023-07-02T09:30:57;6.40;;;2.30;;
21122;SDS011;10719;48.130;11.630;2023-07-02T09:33:23;5.15;;;2.17;;
21122;SDS011;10719;48.130;11.630;2023-07-02T09:35:49;5.40;;;1.80;;
21122;SDS011;10719;48.130;11.630;2023-07-02T09:38:16;4.68;;;1.90;;
21122;SDS011;10719;48.130;11.630;2023-07-02T09:40:47;5.72;;;2.25;;
21122;SDS011;10719;48.130;11.630;2023-07-02T09:43:17;6.95;;;2.42;;
21122;SDS011;10719;48.130;11.630;2023-07-02T09:45:44;7.97;;;2.65;;
21122;SDS011;10719;48.130;11.630;2023-07-02T09:48:12;3.58;;;1.65;;
21122;SDS011;10719;48.130;11.630;2023-07-02T09:50:41;4.78;;;1.88;;
21122;SDS011;10719;48.130;11.630;2023-07-02T09:53:11;7.43;;;2.67;;
21122;SDS011;10719;48.130;11.630;2023-07-02T09:55:37;4.82;;;2.17;;
21122;SDS011;10719;48.130;11.630;2023-07-02T09:58:04;4.72;;;2.10;;
21122;SDS011;10719;48.130;11.630;2023-07-02T10:00:30;5.78;;;2.25;;
21122;SDS011;10719;48.130;11.630;2023-07-02T10:02:56;6.13;;;2.70;;
21122;SDS011;10719;48.130;11.630;2023-07-02T10:05:28;6.78;;;2.13;;
21122;SDS011;10719;48.130;11.630;2023-07-02T10:07:56;5.15;;;2.20;;
21122;SDS011;10719;48.130;11.630;2023-07-02T10:10:29;4.80;;;2.15;;
21122;SDS011;10719;48.130;11.630;2023-07-02T10:12:55;5.78;;;2.28;;
21122;SDS011;10719;48.130;11.630;2023-07-02T10:15:28;6.70;;;2.50;;
21122;SDS011;10719;48.130;11.630;2023-07-02T10:17:55;8.15;;;3.35;;
21122;SDS011;10719;48.130;11.630;2023-07-02T10:20:35;7.38;;;2.63;;
21122;SDS011;10719;48.130;11.630;2023-07-02T10:23:03;7.22;;;2.50;;
21122;SDS011;10719;48.130;11.630;2023-07-02T10:25:30;6.78;;;2.70;;
21122;SDS011;10719;48.130;11.630;2023-07-02T10:28:02;7.57;;;3.25;;
21122;SDS011;10719;48.130;11.630;2023-07-02T10:30:39;8.38;;;2.75;;
21122;SDS011;10719;48.130;11.630;2023-07-02T10:33:08;6.20;;;2.55;;
21122;SDS011;10719;48.130;11.630;2023-07-02T10:35:38;8.43;;;2.92;;
21122;SDS011;10719;48.130;11.630;2023-07-02T10:38:06;7.10;;;2.30;;
21122;SDS011;10719;48.130;11.630;2023-07-02T10:40:32;8.52;;;3.08;;
21122;SDS011;10719;48.130;11.630;2023-07-02T10:42:58;8.25;;;2.90;;
21122;SDS011;10719;48.130;11.630;2023-07-02T10:45:35;8.57;;;2.80;;
21122;SDS011;10719;48.130;11.630;2023-07-02T10:48:02;7.55;;;2.63;;
21122;SDS011;10719;48.130;11.630;2023-07-02T10:50:29;11.07;;;3.78;;
21122;SDS011;10719;48.130;11.630;2023-07-02T10:52:55;12.77;;;3.30;;
21122;SDS011;10719;48.130;11.630;2023-07-02T10:55:23;10.50;;;3.60;;
21122;SDS011;10719;48.130;11.630;2023-07-02T10:57:50;8.73;;;3.10;;
21122;SDS011;10719;48.130;11.630;2023-07-02T11:00:26;10.80;;;3.05;;
21122;SDS011;10719;48.130;11.630;2023-07-02T11:02:52;10.50;;;3.60;;
21122;SDS011;10719;48.130;11.630;2023-07-02T11:05:18;13.73;;;3.70;;
21122;SDS011;10719;48.130;11.630;2023-07-02T11:07:43;10.25;;;3.67;;
21122;SDS011;10719;48.130;11.630;2023-07-02T11:10:09;10.55;;;3.40;;
21122;SDS011;10719;48.130;11.630;2023-07-02T11:12:41;12.07;;;3.92;;
21122;SDS011;10719;48.130;11.630;2023-07-02T11:15:11;11.32;;;4.05;;
21122;SDS011;10719;48.130;11.630;2023-07-02T11:17:38;11.27;;;3.88;;
21122;SDS011;10719;48.130;11.630;2023-07-02T11:20:06;10.40;;;4.20;;
21122;SDS011;10719;48.130;11.630;2023-07-02T11:22:34;10.73;;;4.18;;
21122;SDS011;10719;48.130;11.630;2023-07-02T11:25:10;13.75;;;4.20;;
21122;SDS011;10719;48.130;11.630;2023-07-02T11:27:45;13.35;;;4.50;;
21122;SDS011;10719;48.130;11.630;2023-07-02T11:30:11;15.10;;;4.68;;
21122;SDS011;10719;48.130;11.630;2023-07-02T11:32:53;13.32;;;4.80;;
21122;SDS011;10719;48.130;11.630;2023-07-02T11:35:20;11.57;;;4.60;;
21122;SDS011;10719;48.130;11.630;2023-07-02T11:37:50;11.68;;;4.38;;
21122;SDS011;10719;48.130;11.630;2023-07-02T11:40:18;11.95;;;4.35;;
21122;SDS011;10719;48.130;11.630;2023-07-02T11:42:44;10.13;;;4.18;;
21122;SDS011;10719;48.130;11.630;2023-07-02T11:45:09;12.25;;;4.43;;
21122;SDS011;10719;48.130;11.630;2023-07-02T11:47:35;13.05;;;4.97;;
21122;SDS011;10719;48.130;11.630;2023-07-02T11:50:03;9.63;;;4.05;;
21122;SDS011;10719;48.130;11.630;2023-07-02T11:52:28;16.52;;;5.35;;
21122;SDS011;10719;48.130;11.630;2023-07-02T11:54:54;13.80;;;4.97;;
21122;SDS011;10719;48.130;11.630;2023-07-02T11:57:20;12.38;;;4.45;;
21122;SDS011;10719;48.130;11.630;2023-07-02T11:59:47;15.45;;;4.63;;
21122;SDS011;10719;48.130;11.630;2023-07-02T12:02:14;11.85;;;4.78;;
21122;SDS011;10719;48.130;11.630;2023-07-02T12:04:40;13.63;;;4.75;;
21122;SDS011;10719;48.130;11.630;2023-07-02T12:07:05;12.93;;;5.07;;
21122;SDS011;10719;48.130;11.630;2023-07-02T12:09:31;10.88;;;4.30;;
21122;SDS011;10719;48.130;11.630;2023-07-02T12:11:56;12.75;;;4.85;;
21122;SDS011;10719;48.130;11.630;2023-07-02T12:14:22;12.18;;;4.63;;
21122;SDS011;10719;48.130;11.630;2023-07-02T12:16:47;12.27;;;4.78;;
21122;SDS011;10719;48.130;11.630;2023-07-02T12:19:13;12.98;;;4.90;;
21122;SDS011;10719;48.130;11.630;2023-07-02T12:21:38;11.43;;;4.93;;
21122;SDS011;10719;48.130;11.630;2023-07-02T12:24:05;15.00;;;4.88;;
21122;SDS011;10719;48.130;11.630;2023-07-02T12:26:34;13.93;;;5.25;;
21122;SDS011;10719;48.130;11.630;2023-07-02T12:29:00;14.15;;;5.00;;
21122;SDS011;10719;48.130;11.630;2023-07-02T12:31:26;14.32;;;5.63;;
21122;SDS011;10719;48.130;11.630;2023-07-02T12:33:51;11.73;;;5.50;;
21122;SDS011;10719;48.130;11.630;2023-07-02T12:36:17;15.50;;;5.18;;
21122;SDS011;10719;48.130;11.630;2023-07-02T12:38:42;12.50;;;5.18;;
21122;SDS011;10719;48.130;11.630;2023-07-02T12:41:08;16.23;;;5.22;;
21122;SDS011;10719;48.130;11.630;2023-07-02T12:43:34;12.77;;;5.85;;
21122;SDS011;10719;48.130;11.630;2023-07-02T12:46:02;14.02;;;5.60;;
21122;SDS011;10719;48.130;11.630;2023-07-02T12:48:34;14.23;;;5.85;;
21122;SDS011;10719;48.130;11.630;2023-07-02T12:51:04;13.90;;;5.65;;
21122;SDS011;10719;48.130;11.630;2023-07-02T12:53:34;14.15;;;6.38;;
21122;SDS011;10719;48.130;11.630;2023-07-02T12:56:01;16.98;;;5.68;;
21122;SDS011;10719;48.130;11.630;2023-07-02T12:58:28;13.23;;;5.65;;
21122;SDS011;10719;48.130;11.630;2023-07-02T13:01:01;13.18;;;5.90;;
21122;SDS011;10719;48.130;11.630;2023-07-02T13:03:29;17.13;;;6.45;;
21122;SDS011;10719;48.130;11.630;2023-07-02T13:05:55;14.60;;;6.40;;
21122;SDS011;10719;48.130;11.630;2023-07-02T13:08:21;16.67;;;7.15;;
21122;SDS011;10719;48.130;11.630;2023-07-02T13:10:46;18.02;;;6.97;;
21122;SDS011;10719;48.130;11.630;2023-07-02T13:13:12;16.17;;;6.43;;
21122;SDS011;10719;48.130;11.630;2023-07-02T13:15:37;16.67;;;7.03;;
21122;SDS011;10719;48.130;11.630;2023-07-02T13:18:03;15.48;;;7.00;;
21122;SDS011;10719;48.130;11.630;2023-07-02T13:20:29;16.95;;;7.10;;
21122;SDS011;10719;48.130;11.630;2023-07-02T13:22:55;18.00;;;7.55;;
21122;SDS011;10719;48.130;11.630;2023-07-02T13:25:20;18.20;;;6.78;;
21122;SDS011;10719;48.130;11.630;2023-07-02T13:27:46;16.88;;;7.18;;
21122;SDS011;10719;48.130;11.630;2023-07-02T13:30:11;16.73;;;6.93;;
21122;SDS011;10719;48.130;11.630;2023-07-02T13:32:37;17.02;;;8.07;;
21122;SDS011;10719;48.130;11.630;2023-07-02T13:35:03;16.98;;;7.65;;
21122;SDS011;10719;48.130;11.630;2023-07-02T13:37:29;21.65;;;11.75;;
21122;SDS011;10719;48.130;11.630;2023-07-02T13:39:54;22.83;;;10.85;;
21122;SDS011;10719;48.130;11.630;2023-07-02T13:42:20;19.83;;;8.68;;
21122;SDS011;10719;48.130;11.630;2023-07-02T13:44:45;18.33;;;7.57;;
21122;SDS011;10719;48.130;11.630;2023-07-02T13:47:11;17.50;;;8.05;;
21122;SDS011;10719;48.130;11.630;2023-07-02T13:49:37;18.48;;;8.20;;
21122;SDS011;10719;48.130;11.630;2023-07-02T13:52:09;16.95;;;6.75;;
21122;SDS011;10719;48.130;11.630;2023-07-02T13:54:34;22.25;;;9.55;;
21122;SDS011;10719;48.130;11.630;2023-07-02T13:57:00;17.40;;;7.50;;
21122;SDS011;10719;48.130;11.630;2023-07-02T13:59:25;22.15;;;8.98;;
21122;SDS011;10719;48.130;11.630;2023-07-02T14:01:51;17.20;;;8.68;;
21122;SDS011;10719;48.130;11.630;2023-07-02T14:04:17;16.90;;;8.70;;
21122;SDS011;10719;48.130;11.630;2023-07-02T14:06:43;19.25;;;9.40;;
21122;SDS011;10719;48.130;11.630;2023-07-02T14:09:09;20.67;;;8.77;;
21122;SDS011;10719;48.130;11.630;2023-07-02T14:11:37;22.10;;;7.72;;
21122;SDS011;10719;48.130;11.630;2023-07-02T14:14:04;16.95;;;8.48;;
21122;SDS011;10719;48.130;11.630;2023-07-02T14:16:30;17.88;;;7.90;;
21122;SDS011;10719;48.130;11.630;2023-07-02T14:18:56;17.08;;;7.97;;
21122;SDS011;10719;48.130;11.630;2023-07-02T14:21:22;23.60;;;8.85;;
21122;SDS011;10719;48.130;11.630;2023-07-02T14:23:48;17.33;;;8.00;;
21122;SDS011;10719;48.130;11.630;2023-07-02T14:26:13;18.15;;;8.40;;
21122;SDS011;10719;48.130;11.630;2023-07-02T14:28:39;17.42;;;8.55;;